createdAt,value
2023-02-12T00:01:16.006Z,47.42
2023-02-12T00:03:43.464Z,47.67
2023-02-12T00:06:14.204Z,47.53
2023-02-12T00:08:42.816Z,47.30
2023-02-12T00:11:11.465Z,48.03
2023-02-12T00:13:38.840Z,47.30
2023-02-12T00:16:08.761Z,47.25
2023-02-12T00:18:36.175Z,47.35
2023-02-12T00:21:03.749Z,47.53
2023-02-12T00:23:32.325Z,47.40
2023-02-12T00:25:59.203Z,47.33
2023-02-12T00:28:26.208Z,47.42
2023-02-12T00:30:53.299Z,47.40
2023-02-12T00:33:20.310Z,47.63
2023-02-12T00:35:56.144Z,47.35
2023-02-12T00:38:23.276Z,47.40
2023-02-12T00:40:51.694Z,47.72
2023-02-12T00:43:18.642Z,46.90
2023-02-12T00:45:45.502Z,46.80
2023-02-12T00:48:12.541Z,46.95
2023-02-12T00:50:41.319Z,47.30
2023-02-12T00:53:08.265Z,47.22
2023-02-12T00:55:35.178Z,47.22
2023-02-12T00:58:03.460Z,47.25
2023-02-12T01:00:30.465Z,47.08
2023-02-12T01:02:57.630Z,47.08
2023-02-12T01:05:25.431Z,47.10
2023-02-12T01:07:53.926Z,47.15
2023-02-12T01:10:21.260Z,47.10
2023-02-12T01:12:48.616Z,46.78
2023-02-12T01:15:17.889Z,46.47
2023-02-12T01:17:44.935Z,46.42
2023-02-12T01:20:19.924Z,46.65
2023-02-12T01:22:46.961Z,46.83
2023-02-12T01:25:14.263Z,46.58
2023-02-12T01:27:41.462Z,46.15
2023-02-12T01:30:13.777Z,47.08
2023-02-12T01:32:42.162Z,46.15
2023-02-12T01:35:10.555Z,46.85
2023-02-12T01:37:38.524Z,46.22
2023-02-12T01:40:08.179Z,46.83
2023-02-12T01:42:35.439Z,46.35
2023-02-12T01:45:54.136Z,46.85
2023-02-12T01:48:26.340Z,46.25
2023-02-12T01:50:56.006Z,46.33
2023-02-12T01:53:28.867Z,46.85
2023-02-12T01:55:59.372Z,46.38
2023-02-12T01:58:30.023Z,46.40
2023-02-12T02:00:57.799Z,46.00
2023-02-12T02:03:26.211Z,46.85
2023-02-12T02:05:59.480Z,46.65
2023-02-12T02:08:26.470Z,46.63
2023-02-12T02:10:53.949Z,46.60
2023-02-12T02:13:39.653Z,46.70
2023-02-12T02:16:14.775Z,46.75
2023-02-12T02:18:51.962Z,46.35
2023-02-12T02:21:45.610Z,46.47
2023-02-12T02:24:31.769Z,46.45
2023-02-12T02:27:34.380Z,46.40
2023-02-12T02:30:20.129Z,46.67
2023-02-12T02:32:55.481Z,46.75
2023-02-12T02:35:31.416Z,46.80
2023-02-12T02:38:07.995Z,47.15
2023-02-12T02:40:42.343Z,47.05
2023-02-12T02:43:15.765Z,46.15
2023-02-12T02:45:48.451Z,46.33
2023-02-12T02:48:20.037Z,46.45
2023-02-12T02:50:51.694Z,46.42
2023-02-12T02:53:24.727Z,46.35
2023-02-12T02:55:54.676Z,46.45
2023-02-12T02:58:26.626Z,46.55
2023-02-12T03:00:59.220Z,46.33
2023-02-12T03:03:32.317Z,46.17
2023-02-12T03:06:05.294Z,46.55
2023-02-12T03:08:37.871Z,46.30
2023-02-12T03:11:10.916Z,46.47
2023-02-12T03:13:42.921Z,46.28
2023-02-12T03:16:16.342Z,46.50
2023-02-12T03:18:49.716Z,46.40
2023-02-12T03:21:22.518Z,46.35
2023-02-12T03:23:57.129Z,46.28
2023-02-12T03:26:27.465Z,46.90
2023-02-12T03:28:54.496Z,46.67
2023-02-12T03:31:33.743Z,46.53
2023-02-12T03:34:09.656Z,46.55
2023-02-12T03:36:45.845Z,46.50
2023-02-12T03:39:20.134Z,47.03
2023-02-12T03:41:52.174Z,47.08
2023-02-12T03:44:30.239Z,46.67
2023-02-12T03:47:06.025Z,46.58
2023-02-12T03:49:39.485Z,46.60
2023-02-12T03:52:06.459Z,46.38
2023-02-12T03:54:33.647Z,46.83
2023-02-12T03:57:06.617Z,46.80
2023-02-12T03:59:37.653Z,46.83
2023-02-12T04:02:07.025Z,46.42
2023-02-12T04:04:34.823Z,46.83
2023-02-12T04:07:02.142Z,46.47
2023-02-12T04:09:31.401Z,46.67
2023-02-12T04:12:27.088Z,46.63
2023-02-12T04:15:01.365Z,46.78
2023-02-12T04:17:40.287Z,46.75
2023-02-12T04:20:14.441Z,46.90
2023-02-12T04:22:52.749Z,46.75
2023-02-12T04:25:28.575Z,46.40
2023-02-12T04:28:00.730Z,46.88
2023-02-12T04:30:35.495Z,46.58
2023-02-12T04:33:06.510Z,46.83
2023-02-12T04:35:40.663Z,46.88
2023-02-12T04:38:14.366Z,46.53
2023-02-12T04:40:42.618Z,46.55
2023-02-12T04:43:09.839Z,46.28
2023-02-12T04:45:37.909Z,47.00
2023-02-12T04:48:06.742Z,46.58
2023-02-12T04:50:40.358Z,46.15
2023-02-12T04:53:07.417Z,46.53
2023-02-12T04:55:34.434Z,46.78
2023-02-12T04:58:01.437Z,46.78
2023-02-12T05:00:28.559Z,46.95
2023-02-12T05:02:55.488Z,46.35
2023-02-12T05:05:24.204Z,46.58
2023-02-12T05:07:51.180Z,46.78
2023-02-12T05:10:18.204Z,46.88
2023-02-12T05:12:45.092Z,46.83
2023-02-12T05:15:12.219Z,46.97
2023-02-12T05:17:39.095Z,46.53
2023-02-12T05:20:06.965Z,46.63
2023-02-12T05:22:35.208Z,46.55
2023-02-12T05:25:02.193Z,46.67
2023-02-12T05:27:29.038Z,46.60
2023-02-12T05:29:56.892Z,47.10
2023-02-12T05:32:23.900Z,46.85
2023-02-12T05:34:50.814Z,46.47
2023-02-12T05:37:17.703Z,46.85
2023-02-12T05:39:45.939Z,46.65
2023-02-12T05:42:12.779Z,46.85
2023-02-12T05:44:39.639Z,46.45
2023-02-12T05:47:06.499Z,46.70
2023-02-12T05:49:33.457Z,47.05
2023-02-12T05:52:00.293Z,46.35
2023-02-12T05:54:30.278Z,46.38
2023-02-12T05:56:58.506Z,46.60
2023-02-12T05:59:25.531Z,46.70
2023-02-12T06:01:53.084Z,46.20
2023-02-12T06:04:23.707Z,46.63
2023-02-12T06:06:51.613Z,46.42
2023-02-12T06:09:18.701Z,46.50
2023-02-12T06:11:45.817Z,46.47
2023-02-12T06:14:16.601Z,46.75
2023-02-12T06:16:45.786Z,46.47
2023-02-12T06:19:13.069Z,46.38
2023-02-12T06:21:40.057Z,46.50
2023-02-12T06:24:07.143Z,46.70
2023-02-12T06:26:34.137Z,46.55
2023-02-12T06:29:01.930Z,46.33
2023-02-12T06:31:32.193Z,46.63
2023-02-12T06:34:01.580Z,46.35
2023-02-12T06:36:28.905Z,46.42
2023-02-12T06:38:56.197Z,46.75
2023-02-12T06:41:24.113Z,46.65
2023-02-12T06:43:51.405Z,46.58
2023-02-12T06:46:18.658Z,46.58
2023-02-12T06:48:46.886Z,46.95
2023-02-12T06:51:15.593Z,46.72
2023-02-12T06:53:43.537Z,47.17
2023-02-12T06:56:13.341Z,46.55
2023-02-12T06:58:41.943Z,46.95
2023-02-12T07:01:13.329Z,46.72
2023-02-12T07:03:41.244Z,46.95
2023-02-12T07:06:10.551Z,47.30
2023-02-12T07:08:37.530Z,46.55
2023-02-12T07:11:05.085Z,47.20
2023-02-12T07:13:34.745Z,47.17
2023-02-12T07:16:04.929Z,46.92
2023-02-12T07:18:31.958Z,47.00
2023-02-12T07:20:58.863Z,46.92
2023-02-12T07:23:27.119Z,47.13
2023-02-12T07:25:57.380Z,46.97
2023-02-12T07:28:24.617Z,47.00
2023-02-12T07:30:51.637Z,47.20
2023-02-12T07:33:18.513Z,46.80
2023-02-12T07:35:45.523Z,47.15
2023-02-12T07:38:12.849Z,47.25
2023-02-12T07:40:41.099Z,46.92
2023-02-12T07:43:08.004Z,47.15
2023-02-12T07:45:36.291Z,46.92
2023-02-12T07:48:03.352Z,47.03
2023-02-12T07:50:30.287Z,47.20
2023-02-12T07:52:57.184Z,47.38
2023-02-12T07:55:24.098Z,47.08
2023-02-12T07:57:52.384Z,47.30
2023-02-12T08:00:20.059Z,47.35
2023-02-12T08:02:52.076Z,47.25
2023-02-12T08:05:19.076Z,47.65
2023-02-12T08:07:45.965Z,47.67
2023-02-12T08:10:12.968Z,47.10
2023-02-12T08:12:39.850Z,47.45
2023-02-12T08:15:09.302Z,46.92
2023-02-12T08:17:36.292Z,47.35
2023-02-12T08:20:03.258Z,46.97
2023-02-12T08:22:30.371Z,47.35
2023-02-12T08:24:57.229Z,47.28
2023-02-12T08:27:24.182Z,47.33
2023-02-12T08:29:51.074Z,47.30
2023-02-12T08:32:19.324Z,47.70
2023-02-12T08:34:46.195Z,47.60
2023-02-12T08:37:13.113Z,47.35
2023-02-12T08:39:40.121Z,46.97
2023-02-12T08:42:07.026Z,47.60
2023-02-12T08:44:33.911Z,47.70
2023-02-12T08:47:00.921Z,47.42
2023-02-12T08:49:30.234Z,47.75
2023-02-12T08:51:59.853Z,47.70
2023-02-12T08:54:28.419Z,48.72
2023-02-12T08:56:56.729Z,47.88
2023-02-12T08:59:24.001Z,47.85
2023-02-12T09:01:52.237Z,48.33
2023-02-12T09:04:21.883Z,48.00
2023-02-12T09:06:51.015Z,47.40
2023-02-12T09:09:18.317Z,47.92
2023-02-12T09:11:45.203Z,47.63
2023-02-12T09:14:15.400Z,47.60
2023-02-12T09:16:42.704Z,47.45
2023-02-12T09:19:13.883Z,48.78
2023-02-12T09:21:41.168Z,49.05
2023-02-12T09:24:09.866Z,48.67
2023-02-12T09:26:37.292Z,49.30
2023-02-12T09:29:04.727Z,48.53
2023-02-12T09:31:32.667Z,48.08
2023-02-12T09:34:02.065Z,48.33
2023-02-12T09:36:29.623Z,47.72
2023-02-12T09:38:57.435Z,47.95
2023-02-12T09:41:48.888Z,47.88
2023-02-12T09:46:51.745Z,47.35
2023-02-12T09:49:28.230Z,47.47
2023-02-12T09:51:55.738Z,48.10
2023-02-12T09:54:29.007Z,47.80
2023-02-12T09:57:01.431Z,47.90
2023-02-12T09:59:33.628Z,47.85
2023-02-12T10:02:00.607Z,47.38
2023-02-12T10:04:28.872Z,48.33
2023-02-12T10:07:07.108Z,47.80
2023-02-12T10:09:49.259Z,47.90
2023-02-12T10:12:26.653Z,47.67
2023-02-12T10:15:10.577Z,47.78
2023-02-12T10:17:42.854Z,47.83
2023-02-12T10:20:29.114Z,47.92
2023-02-12T10:23:13.046Z,47.70
2023-02-12T10:25:48.141Z,47.97
2023-02-12T10:28:20.881Z,47.90
2023-02-12T10:30:53.248Z,47.83
2023-02-12T10:33:27.138Z,48.42
2023-02-12T10:36:00.354Z,47.92
2023-02-12T10:38:31.465Z,48.17
2023-02-12T10:41:01.857Z,47.47
2023-02-12T10:43:30.693Z,47.63
2023-02-12T10:45:58.347Z,48.22
2023-02-12T10:48:30.157Z,47.97
2023-02-12T10:51:19.987Z,48.20
2023-02-12T10:53:47.213Z,47.67
2023-02-12T10:56:18.049Z,48.13
2023-02-12T10:58:55.111Z,47.70
2023-02-12T11:01:26.307Z,46.97
2023-02-12T11:03:54.298Z,47.60
2023-02-12T11:06:23.831Z,47.33
2023-02-12T11:08:50.742Z,47.40
2023-02-12T11:11:20.859Z,46.95
2023-02-12T11:13:57.246Z,47.40
2023-02-12T11:16:29.749Z,47.30
2023-02-12T11:19:02.341Z,47.13
2023-02-12T11:21:29.352Z,47.10
2023-02-12T11:23:56.307Z,46.78
2023-02-12T11:26:26.266Z,47.20
2023-02-12T11:28:57.209Z,47.13
2023-02-12T11:31:26.548Z,46.53
2023-02-12T11:34:14.708Z,46.80
2023-02-12T11:36:44.054Z,47.15
2023-02-12T11:39:19.254Z,47.67
2023-02-12T11:41:51.620Z,47.55
2023-02-12T11:44:22.401Z,47.80
2023-02-12T11:46:51.976Z,47.35
2023-02-12T11:49:21.768Z,47.70
2023-02-12T11:51:49.788Z,47.33
2023-02-12T11:54:21.644Z,47.17
2023-02-12T11:56:48.964Z,47.15
2023-02-12T11:59:31.405Z,47.42
2023-02-12T12:02:04.359Z,47.38
2023-02-12T12:04:35.641Z,46.83
2023-02-12T12:07:12.103Z,47.38
2023-02-12T12:09:44.620Z,47.13
2023-02-12T12:12:17.010Z,47.13
2023-02-12T12:15:08.852Z,46.88
2023-02-12T12:18:02.074Z,46.88
2023-02-12T12:20:32.931Z,47.25
2023-02-12T12:23:06.084Z,47.67
2023-02-12T12:25:40.881Z,47.83
2023-02-12T12:28:19.303Z,48.30
2023-02-12T12:31:00.742Z,48.53
2023-02-12T12:36:33.022Z,48.80
2023-02-12T12:39:07.217Z,49.70
2023-02-12T12:41:47.965Z,51.22
2023-02-12T12:44:31.874Z,51.95
2023-02-12T12:47:13.277Z,52.28
2023-02-12T12:50:07.915Z,53.42
2023-02-12T12:53:07.002Z,53.83
2023-02-12T12:55:49.006Z,55.70
2023-02-12T12:58:30.818Z,55.88
2023-02-12T13:01:16.157Z,56.17
2023-02-12T13:04:00.841Z,55.42
2023-02-12T13:06:38.424Z,55.50
2023-02-12T13:09:33.854Z,54.25
2023-02-12T13:12:28.200Z,51.72
2023-02-12T13:15:03.556Z,51.88
2023-02-12T13:17:36.939Z,51.95
2023-02-12T13:20:12.468Z,52.10
2023-02-12T13:22:47.561Z,53.00
2023-02-12T13:25:23.908Z,52.67
2023-02-12T13:27:52.509Z,52.08
2023-02-12T13:30:23.592Z,53.13
2023-02-12T13:33:00.584Z,52.20
2023-02-12T13:35:31.612Z,52.63
2023-02-12T13:38:00.549Z,52.42
2023-02-12T13:40:29.463Z,52.90
2023-02-12T13:43:01.913Z,52.03
2023-02-12T13:45:40.906Z,52.05
2023-02-12T13:48:24.654Z,51.60
2023-02-12T13:51:01.514Z,51.83
2023-02-12T13:53:37.098Z,52.53
2023-02-12T13:56:17.525Z,52.08
2023-02-12T13:58:49.627Z,51.22
2023-02-12T14:01:37.567Z,51.78
2023-02-12T14:04:32.342Z,51.22
2023-02-12T14:07:04.129Z,50.72
2023-02-12T14:09:37.821Z,50.83
2023-02-12T14:12:07.667Z,50.78
2023-02-12T14:14:38.042Z,50.28
2023-02-12T14:17:42.087Z,49.93
2023-02-12T14:20:22.191Z,50.03
2023-02-12T14:23:24.657Z,49.92
2023-02-12T14:26:03.594Z,49.85
2023-02-12T14:28:47.575Z,49.97
2023-02-12T14:31:34.219Z,50.25
2023-02-12T14:34:38.361Z,49.42
2023-02-12T14:37:31.991Z,48.88
2023-02-12T14:40:32.222Z,48.65
2023-02-12T14:43:01.928Z,48.75
2023-02-12T14:45:32.059Z,49.58
2023-02-12T14:47:59.653Z,49.10
2023-02-12T14:50:35.895Z,48.78
2023-02-12T14:53:29.615Z,49.38
2023-02-12T14:55:57.777Z,48.55
2023-02-12T14:58:30.717Z,48.38
2023-02-12T15:00:59.482Z,49.08
2023-02-12T15:03:34.514Z,48.75
2023-02-12T15:06:07.297Z,49.13
2023-02-12T15:08:44.730Z,48.28
2023-02-12T15:11:23.919Z,48.38
2023-02-12T15:13:57.239Z,48.47
2023-02-12T15:16:35.719Z,48.70
2023-02-12T15:19:12.358Z,48.33
2023-02-12T15:21:39.558Z,47.75
2023-02-12T15:24:08.486Z,48.70
2023-02-12T15:26:41.458Z,48.53
2023-02-12T15:29:19.543Z,47.47
2023-02-12T15:31:51.965Z,48.55
2023-02-12T15:34:22.657Z,48.15
2023-02-12T15:36:49.963Z,48.05
2023-02-12T15:39:20.352Z,47.75
2023-02-12T15:41:47.614Z,47.95
2023-02-12T15:44:27.677Z,47.05
2023-02-12T15:47:12.977Z,47.85
2023-02-12T15:49:42.137Z,47.67
2023-02-12T15:52:16.909Z,47.97
2023-02-12T15:54:44.821Z,47.83
2023-02-12T15:57:14.501Z,47.63
2023-02-12T15:59:43.744Z,47.35
2023-02-12T16:02:19.761Z,47.80
2023-02-12T16:04:47.056Z,47.28
2023-02-12T16:07:15.270Z,47.67
2023-02-12T16:09:43.452Z,47.30
2023-02-12T16:12:15.378Z,48.00
2023-02-12T16:14:47.864Z,47.67
2023-02-12T16:17:26.400Z,47.38
2023-02-12T16:19:55.453Z,47.00
2023-02-12T16:22:27.518Z,47.72
2023-02-12T16:24:58.725Z,46.97
2023-02-12T16:27:28.728Z,47.53
2023-02-12T16:29:59.854Z,47.25
2023-02-12T16:32:34.524Z,47.30
2023-02-12T16:35:03.935Z,46.92
2023-02-12T16:37:48.047Z,47.42
2023-02-12T16:40:27.843Z,47.22
2023-02-12T16:42:59.681Z,47.10
2023-02-12T16:45:36.001Z,47.20
2023-02-12T16:48:08.966Z,47.05
2023-02-12T16:50:39.354Z,47.00
2023-02-12T16:53:08.429Z,47.03
2023-02-12T16:55:36.767Z,47.13
2023-02-12T16:58:03.694Z,47.15
2023-02-12T17:00:31.359Z,47.55
2023-02-12T17:02:59.635Z,47.65
2023-02-12T17:05:26.591Z,47.05
2023-02-12T17:07:53.648Z,47.20
2023-02-12T17:10:20.558Z,47.25
2023-02-12T17:12:48.507Z,47.10
2023-02-12T17:15:21.327Z,46.92
2023-02-12T17:17:48.217Z,47.33
2023-02-12T17:20:17.533Z,46.92
2023-02-12T17:22:50.114Z,47.30
2023-02-12T17:25:17.754Z,46.85
2023-02-12T17:27:45.001Z,47.03
2023-02-12T17:30:15.963Z,47.35
2023-02-12T17:32:42.954Z,47.05
2023-02-12T17:35:10.338Z,47.28
2023-02-12T17:37:38.842Z,47.15
2023-02-12T17:40:07.449Z,47.35
2023-02-12T17:42:34.340Z,47.05
2023-02-12T17:45:01.195Z,47.60
2023-02-12T17:47:28.267Z,47.78
2023-02-12T17:49:57.599Z,47.15
2023-02-12T17:52:24.466Z,47.42
2023-02-12T17:54:52.774Z,47.45
2023-02-12T17:57:19.619Z,47.10
2023-02-12T17:59:46.500Z,47.72
2023-02-12T18:02:13.441Z,47.78
2023-02-12T18:04:40.364Z,47.50
2023-02-12T18:07:07.284Z,47.53
2023-02-12T18:09:36.169Z,47.45
2023-02-12T18:12:05.053Z,47.78
2023-02-12T18:14:31.973Z,47.70
2023-02-12T18:16:59.138Z,47.95
2023-02-12T18:19:26.311Z,47.88
2023-02-12T18:21:53.174Z,47.60
2023-02-12T18:24:20.147Z,47.83
2023-02-12T18:26:47.175Z,47.42
2023-02-12T18:29:15.459Z,48.17
2023-02-12T18:31:42.452Z,47.33
2023-02-12T18:34:09.290Z,47.50
2023-02-12T18:36:36.320Z,47.55
2023-02-12T18:39:03.620Z,47.35
2023-02-12T18:41:32.889Z,47.13
2023-02-12T18:43:59.924Z,47.47
2023-02-12T18:46:30.839Z,47.22
2023-02-12T18:48:58.436Z,47.47
2023-02-12T18:51:27.242Z,47.63
2023-02-12T18:53:57.337Z,47.47
2023-02-12T18:56:24.195Z,47.30
2023-02-12T18:58:55.227Z,47.38
2023-02-12T19:01:22.424Z,47.30
2023-02-12T19:03:53.611Z,47.53
2023-02-12T19:06:20.500Z,47.22
2023-02-12T19:08:47.418Z,47.67
2023-02-12T19:11:15.704Z,47.28
2023-02-12T19:13:42.801Z,47.42
2023-02-12T19:16:13.044Z,46.95
2023-02-12T19:18:39.991Z,47.15
2023-02-12T19:21:09.185Z,47.08
2023-02-12T19:23:36.664Z,46.55
2023-02-12T19:26:04.938Z,46.92
2023-02-12T19:28:32.206Z,47.30
2023-02-12T19:31:00.020Z,46.95
2023-02-12T19:33:27.184Z,47.35
2023-02-12T19:35:54.027Z,47.22
2023-02-12T19:38:22.342Z,47.35
2023-02-12T19:40:49.221Z,47.20
2023-02-12T19:43:16.167Z,47.05
2023-02-12T19:45:43.028Z,47.15
2023-02-12T19:48:09.887Z,46.72
2023-02-12T19:50:36.785Z,47.35
2023-02-12T19:53:03.614Z,47.20
2023-02-12T19:55:35.304Z,47.00
2023-02-12T19:58:02.165Z,47.28
2023-02-12T20:00:29.044Z,47.15
2023-02-12T20:02:55.942Z,46.92
2023-02-12T20:05:22.905Z,46.83
2023-02-12T20:07:49.728Z,46.75
2023-02-12T20:10:18.365Z,47.45
2023-02-12T20:12:46.662Z,46.72
2023-02-12T20:15:13.528Z,46.92
2023-02-12T20:17:40.403Z,46.72
2023-02-12T20:20:09.789Z,47.03
2023-02-12T20:22:38.544Z,46.95
2023-02-12T20:25:06.002Z,46.95
2023-02-12T20:27:33.850Z,46.95
2023-02-12T20:30:02.066Z,47.20
2023-02-12T20:32:28.948Z,46.75
2023-02-12T20:34:55.830Z,46.72
2023-02-12T20:37:22.684Z,47.08
2023-02-12T20:39:49.517Z,46.90
2023-02-12T20:42:16.419Z,46.90
2023-02-12T20:44:43.289Z,47.22
2023-02-12T20:47:11.668Z,47.15
2023-02-12T20:49:38.749Z,47.05
2023-02-12T20:52:05.871Z,47.10
2023-02-12T20:54:32.723Z,46.80
2023-02-12T20:56:59.844Z,47.10
2023-02-12T20:59:26.755Z,46.67
2023-02-12T21:01:53.889Z,47.08
2023-02-12T21:04:22.129Z,47.10
2023-02-12T21:06:49.001Z,46.67
2023-02-12T21:09:16.558Z,46.90
2023-02-12T21:11:45.488Z,47.15
2023-02-12T21:14:23.438Z,47.20
2023-02-12T21:16:51.663Z,47.10
2023-02-12T21:19:18.915Z,47.10
2023-02-12T21:21:47.856Z,47.03
2023-02-12T21:24:16.597Z,47.03
2023-02-12T21:26:43.957Z,47.05
2023-02-12T21:29:11.123Z,46.88
2023-02-12T21:31:39.476Z,47.08
2023-02-12T21:34:08.182Z,46.75
2023-02-12T21:36:37.284Z,46.92
2023-02-12T21:39:07.835Z,46.95
2023-02-12T21:41:36.656Z,47.10
2023-02-12T21:44:05.816Z,47.25
2023-02-12T21:46:34.174Z,46.90
2023-02-12T21:49:01.638Z,47.25
2023-02-12T21:51:29.951Z,46.90
2023-02-12T21:53:59.683Z,47.00
2023-02-12T21:56:28.901Z,46.97
2023-02-12T21:58:58.082Z,46.97
2023-02-12T22:01:27.700Z,47.05
2023-02-12T22:03:55.329Z,47.15
2023-02-12T22:06:24.936Z,47.38
2023-02-12T22:08:52.335Z,46.75
2023-02-12T22:11:20.478Z,46.88
2023-02-12T22:13:48.979Z,46.78
2023-02-12T22:16:18.119Z,47.30
2023-02-12T22:18:45.869Z,47.05
2023-02-12T22:21:14.078Z,47.28
2023-02-12T22:23:41.822Z,47.17
2023-02-12T22:26:11.089Z,47.13
2023-02-12T22:28:40.721Z,46.72
2023-02-12T22:31:10.519Z,47.17
2023-02-12T22:33:37.458Z,47.17
2023-02-12T22:36:05.736Z,47.38
2023-02-12T22:38:33.633Z,47.38
2023-02-12T22:41:00.557Z,47.50
2023-02-12T22:43:28.650Z,47.25
2023-02-12T22:45:55.623Z,47.25
2023-02-12T22:48:23.882Z,47.30
2023-02-12T22:50:50.924Z,47.40
2023-02-12T22:53:17.805Z,46.90
2023-02-12T22:55:44.682Z,47.22
2023-02-12T22:58:11.981Z,47.13
2023-02-12T23:00:40.562Z,47.30
2023-02-12T23:03:07.814Z,47.40
2023-02-12T23:05:37.131Z,47.33
2023-02-12T23:08:04.685Z,47.20
2023-02-12T23:10:32.322Z,47.30
2023-02-12T23:12:59.241Z,47.10
2023-02-12T23:15:26.223Z,46.97
2023-02-12T23:17:53.110Z,47.45
2023-02-12T23:20:20.270Z,47.15
2023-02-12T23:22:48.692Z,47.28
2023-02-12T23:25:15.804Z,47.17
2023-02-12T23:27:42.703Z,46.97
2023-02-12T23:30:10.437Z,47.35
2023-02-12T23:32:37.325Z,47.25
2023-02-12T23:35:04.670Z,47.13
2023-02-12T23:37:31.502Z,47.58
2023-02-12T23:39:59.780Z,47.05
2023-02-12T23:42:26.744Z,47.30
2023-02-12T23:44:54.612Z,47.25
2023-02-12T23:47:23.098Z,47.13
2023-02-12T23:49:49.911Z,46.92
2023-02-12T23:52:16.822Z,47.22
2023-02-12T23:54:43.642Z,47.08
2023-02-12T23:57:11.923Z,47.00
2023-02-12T23:59:38.771Z,46.85
